KTWF/TWF METAR and TAF weather

Enter ICAO airport designator
Station Type Date Time Source
KTWF METAR 2019/10/23 01:53 UTC NOAA

KTWF 230153Z 23007KT 10SM CLR 09/06 A3025 RMK AO2 SLP228 T00890056


Station Type Date Time Source
KTWF Decoded METAR 2019/10/23 01:53 UTC NOAA

JOSLIN FLD-MAGIC VALLEY REGL, ID, United States (KTWF) 42-29N 114-29W 1266M
Oct 22, 2019 - 09:53 PM EDT / 2019.10.23 0153 UTC
Wind: from the SW (230 degrees) at 8 MPH (7 KT):0
Visibility: 10 mile(s):0
Sky conditions: clear
Temperature: 48.0 F (8.9 C)
Dew Point: 42.1 F (5.6 C)
Relative Humidity: 79%
Pressure (altimeter): 30.25 in. Hg (1024 hPa)
ob: KTWF 230153Z 23007KT 10SM CLR 09/06 A3025 RMK AO2 SLP228 T00890056
cycle: 2

Station Type Date Time Source
KTWF TAF 2019/10/22 18:22 UTC NOAA

TAF KTWF 221720Z 2218/2318 27018G28KT P6SM BKN050 OVC100
FM230200 24015G25KT P6SM SKC

Example: see airport list